Tilley, Canada
Current Conditions -  °F | °C
As of 10:00 PM on Friday 28 Nov 2014 (Local Time) from CYXH Reporting Station
Light Snow Light Snow  
Wind Chill: -25°   Ceiling: 2500
Heat Index: -4°   Visibility: 1.7mi
Dew Point: -9°   Wind: 16mph
Humidity: 78%   Direction: 310°NW
Pressure: 29.74"   Gusts: 23mph
Location:  50.45°N, 111.65°W
Report Text: CYXH 290500Z AUTO 31014G20KT 1 3/4SM -SN SCT020 OVC025 M20/M23 A2974 RMK SLP125
Loading
Personal Weather Stations






























Interactive Weather Map New forecast layout! Learn more

10-Day Weather Forecast

Advertisements
Track Severe Weather on mobile